createdAt,value
2022-10-26T00:01:10.804Z,94354.88
2022-10-26T00:03:38.927Z,94352.69
2022-10-26T00:06:06.954Z,94354.50
2022-10-26T00:08:33.661Z,94356.75
2022-10-26T00:11:00.309Z,94357.75
2022-10-26T00:13:27.324Z,94352.25
2022-10-26T00:15:54.580Z,94346.84
2022-10-26T00:18:21.733Z,94346.03
2022-10-26T00:20:48.451Z,94340.28
2022-10-26T00:23:15.115Z,94348.97
2022-10-26T00:25:42.077Z,94355.00
2022-10-26T00:28:08.683Z,94353.88
2022-10-26T00:30:38.894Z,94360.81
2022-10-26T00:33:05.589Z,94357.69
2022-10-26T00:35:45.070Z,94357.91
2022-10-26T00:38:12.983Z,94373.59
2022-10-26T00:40:39.670Z,94356.88
2022-10-26T00:43:33.141Z,94369.66
2022-10-26T00:46:01.865Z,94366.06
2022-10-26T00:48:52.352Z,94366.50
2022-10-26T00:51:33.572Z,94367.56
2022-10-26T00:54:07.347Z,94362.53
2022-10-26T00:56:34.777Z,94356.78
2022-10-26T00:59:04.688Z,94358.78
2022-10-26T01:01:33.716Z,94364.94
2022-10-26T01:04:00.903Z,94366.97
2022-10-26T01:06:30.150Z,94355.72
2022-10-26T01:08:56.846Z,94346.56
2022-10-26T01:11:23.840Z,94359.56
2022-10-26T01:13:52.587Z,94344.66
2022-10-26T01:16:31.434Z,94352.38
2022-10-26T01:19:10.210Z,94343.88
2022-10-26T01:21:55.077Z,94353.63
2022-10-26T01:25:00.892Z,94356.09
2022-10-26T01:27:40.615Z,94356.88
2022-10-26T01:30:19.258Z,94353.66
2022-10-26T01:33:13.257Z,94351.91
2022-10-26T01:36:02.814Z,94358.50
2022-10-26T01:38:51.071Z,94354.84
2022-10-26T01:41:32.808Z,94348.34
2022-10-26T01:44:04.838Z,94343.09
2022-10-26T01:46:38.268Z,94348.19
2022-10-26T01:49:11.302Z,94342.47
2022-10-26T01:51:44.107Z,94348.97
2022-10-26T01:54:11.216Z,94345.84
2022-10-26T01:56:44.605Z,94339.59
2022-10-26T01:59:39.763Z,94344.16
2022-10-26T02:02:28.895Z,94332.72
2022-10-26T02:05:16.816Z,94322.81
2022-10-26T02:08:10.517Z,94331.22
2022-10-26T02:10:40.163Z,94332.13
2022-10-26T02:13:33.682Z,94313.94
2022-10-26T02:16:09.247Z,94302.59
2022-10-26T02:18:53.235Z,94299.94
2022-10-26T02:21:25.784Z,94303.53
2022-10-26T02:23:56.099Z,94296.47
2022-10-26T02:26:26.665Z,94292.66
2022-10-26T02:28:56.275Z,94290.84
2022-10-26T02:31:25.639Z,94291.72
2022-10-26T02:33:55.463Z,94304.28
2022-10-26T02:36:26.677Z,94305.19
2022-10-26T02:38:54.439Z,94319.06
2022-10-26T02:41:23.272Z,94329.06
2022-10-26T02:44:16.935Z,94330.28
2022-10-26T02:46:44.688Z,94321.47
2022-10-26T02:49:11.622Z,94325.38
2022-10-26T02:52:03.186Z,94309.72
2022-10-26T02:54:54.313Z,94318.66
2022-10-26T02:57:27.811Z,94313.94
2022-10-26T02:59:55.993Z,94307.56
2022-10-26T03:02:23.392Z,94300.50
2022-10-26T03:04:51.056Z,94303.16
2022-10-26T03:07:22.333Z,94320.31
2022-10-26T03:09:49.113Z,94325.56
2022-10-26T03:12:16.322Z,94325.34
2022-10-26T03:14:43.160Z,94337.56
2022-10-26T03:17:09.850Z,94334.53
2022-10-26T03:19:36.516Z,94336.91
2022-10-26T03:22:03.160Z,94327.75
2022-10-26T03:24:29.844Z,94333.88
2022-10-26T03:26:59.577Z,94338.16
2022-10-26T03:29:28.809Z,94336.31
2022-10-26T03:31:55.478Z,94340.78
2022-10-26T03:34:22.295Z,94346.72
2022-10-26T03:36:49.015Z,94361.19
2022-10-26T03:39:15.764Z,94359.63
2022-10-26T03:41:42.508Z,94367.22
2022-10-26T03:44:09.246Z,94368.00
2022-10-26T03:46:35.986Z,94365.66
2022-10-26T03:49:02.698Z,94370.41
2022-10-26T03:51:29.354Z,94373.84
2022-10-26T03:53:56.056Z,94380.66
2022-10-26T03:56:22.749Z,94391.97
2022-10-26T03:58:49.419Z,94386.34
2022-10-26T04:01:16.111Z,94393.47
2022-10-26T04:03:42.819Z,94404.47
2022-10-26T04:06:09.460Z,94414.56
2022-10-26T04:08:36.096Z,94417.44
2022-10-26T04:11:04.607Z,94423.91
2022-10-26T04:13:31.827Z,94414.16
2022-10-26T04:15:58.525Z,94417.28
2022-10-26T04:18:25.264Z,94405.31
2022-10-26T04:20:51.954Z,94405.91
2022-10-26T04:23:19.919Z,94404.47
2022-10-26T04:25:46.844Z,94405.25
2022-10-26T04:28:14.463Z,94409.75
2022-10-26T04:30:41.151Z,94413.38
2022-10-26T04:33:07.914Z,94393.00
2022-10-26T04:35:35.420Z,94418.25
2022-10-26T04:38:05.003Z,94418.94
2022-10-26T04:40:33.713Z,94424.09
2022-10-26T04:43:00.529Z,94402.56
2022-10-26T04:45:28.768Z,94399.03
2022-10-26T04:48:07.413Z,94409.16
2022-10-26T04:50:35.011Z,94356.19
2022-10-26T04:53:03.933Z,94345.66
2022-10-26T04:55:30.668Z,94344.31
2022-10-26T04:58:00.271Z,94354.38
2022-10-26T05:00:30.205Z,94358.44
2022-10-26T05:03:04.707Z,94386.63
2022-10-26T05:05:33.082Z,94404.63
2022-10-26T05:07:59.796Z,94402.72
2022-10-26T05:10:28.415Z,94399.38
2022-10-26T05:12:57.110Z,94388.56
2022-10-26T05:15:24.119Z,94379.34
2022-10-26T05:17:59.346Z,94382.69
2022-10-26T05:20:31.279Z,94390.75
2022-10-26T05:22:59.257Z,94399.81
2022-10-26T05:25:26.514Z,94397.34
2022-10-26T05:28:00.713Z,94404.63
2022-10-26T05:30:28.667Z,94413.59
2022-10-26T05:33:00.153Z,94409.66
2022-10-26T05:35:27.620Z,94400.50
2022-10-26T05:37:54.405Z,94402.38
2022-10-26T05:40:21.446Z,94410.44
2022-10-26T05:42:48.643Z,94418.03
2022-10-26T05:45:15.533Z,94410.16
2022-10-26T05:47:44.252Z,94417.56
2022-10-26T05:50:12.493Z,94414.56
2022-10-26T05:52:40.697Z,94417.38
2022-10-26T05:55:09.520Z,94419.50
2022-10-26T05:57:37.272Z,94405.97
2022-10-26T06:00:15.085Z,94414.63
2022-10-26T06:03:06.006Z,94412.41
2022-10-26T06:05:53.678Z,94406.88
2022-10-26T06:08:22.399Z,94411.94
2022-10-26T06:10:49.890Z,94425.81
2022-10-26T06:13:16.925Z,94425.47
2022-10-26T06:16:11.411Z,94431.31
2022-10-26T06:19:19.531Z,94421.22
2022-10-26T06:21:55.098Z,94440.84
2022-10-26T06:24:24.743Z,94442.88
2022-10-26T06:27:05.683Z,94442.88
2022-10-26T06:29:46.094Z,94435.75
2022-10-26T06:32:12.867Z,94443.16
2022-10-26T06:34:45.409Z,94434.97
2022-10-26T06:37:13.203Z,94455.28
2022-10-26T06:39:44.613Z,94437.66
2022-10-26T06:42:12.341Z,94453.84
2022-10-26T06:44:39.403Z,94455.84
2022-10-26T06:47:09.846Z,94456.75
2022-10-26T06:50:02.763Z,94461.94
2022-10-26T06:52:47.348Z,94460.97
2022-10-26T06:55:15.826Z,94453.34
2022-10-26T06:57:44.266Z,94466.50
2022-10-26T07:00:21.871Z,94456.81
2022-10-26T07:02:50.173Z,94469.16
2022-10-26T07:05:17.324Z,94467.81
2022-10-26T07:07:46.405Z,94478.94
2022-10-26T07:10:14.968Z,94479.44
2022-10-26T07:12:41.659Z,94475.22
2022-10-26T07:17:45.973Z,94489.28
2022-10-26T07:20:13.460Z,94497.13
2022-10-26T07:22:40.833Z,94506.41
2022-10-26T07:25:08.148Z,94495.88
2022-10-26T07:27:35.459Z,94506.09
2022-10-26T07:30:02.571Z,94498.03
2022-10-26T07:32:29.764Z,94512.38
2022-10-26T07:34:56.783Z,94510.56
2022-10-26T07:37:23.495Z,94509.91
2022-10-26T07:39:50.174Z,94520.31
2022-10-26T07:42:16.853Z,94503.16
2022-10-26T07:44:43.524Z,94514.97
2022-10-26T07:47:10.182Z,94517.06
2022-10-26T07:49:36.836Z,94528.84
2022-10-26T07:52:03.764Z,94523.34
2022-10-26T07:54:30.483Z,94544.31
2022-10-26T07:56:58.088Z,94526.75
2022-10-26T07:59:24.915Z,94528.09
2022-10-26T08:01:52.280Z,94528.78
2022-10-26T08:04:19.072Z,94529.50
2022-10-26T08:06:45.790Z,94540.09
2022-10-26T08:09:12.822Z,94539.41
2022-10-26T08:11:39.450Z,94535.81
2022-10-26T08:14:06.150Z,94546.78
2022-10-26T08:16:34.848Z,94544.16
2022-10-26T08:19:01.577Z,94540.34
2022-10-26T08:21:39.254Z,94532.78
2022-10-26T08:24:07.073Z,94535.53
2022-10-26T08:26:33.810Z,94533.28
2022-10-26T08:29:00.477Z,94539.16
2022-10-26T08:31:27.174Z,94531.91
2022-10-26T08:33:53.826Z,94528.41
2022-10-26T08:36:24.653Z,94537.75
2022-10-26T08:38:52.734Z,94530.69
2022-10-26T08:41:33.870Z,94535.72
2022-10-26T08:44:08.270Z,94538.53
2022-10-26T08:46:41.541Z,94542.63
2022-10-26T08:49:14.259Z,94535.81
2022-10-26T08:51:42.751Z,94540.09
2022-10-26T08:54:17.281Z,94538.41
2022-10-26T08:56:52.042Z,94544.56
2022-10-26T08:59:37.162Z,94552.13
2022-10-26T09:02:04.372Z,94553.28
2022-10-26T09:04:34.118Z,94552.91
2022-10-26T09:07:19.809Z,94560.41
2022-10-26T09:09:52.347Z,94555.81
2022-10-26T09:12:39.341Z,94548.84
2022-10-26T09:15:23.408Z,94561.03
2022-10-26T09:17:58.477Z,94562.09
2022-10-26T09:20:31.034Z,94561.56
2022-10-26T09:23:15.134Z,94565.63
2022-10-26T09:25:42.087Z,94574.84
2022-10-26T09:28:16.973Z,94578.34
2022-10-26T09:30:47.684Z,94577.56
2022-10-26T09:33:22.404Z,94570.94
2022-10-26T09:35:51.712Z,94585.88
2022-10-26T09:38:43.149Z,94584.03
2022-10-26T09:41:29.610Z,94583.84
2022-10-26T09:44:04.859Z,94583.00
2022-10-26T09:46:40.687Z,94584.38
2022-10-26T09:49:11.187Z,94593.53
2022-10-26T09:51:42.458Z,94595.59
2022-10-26T09:54:18.487Z,94596.88
2022-10-26T09:56:50.110Z,94592.78
2022-10-26T09:59:21.320Z,94602.78
2022-10-26T10:01:48.042Z,94612.75
2022-10-26T10:04:16.827Z,94611.09
2022-10-26T10:06:45.367Z,94608.28
2022-10-26T10:09:19.281Z,94615.91
2022-10-26T10:11:55.134Z,94623.72
2022-10-26T10:14:29.218Z,94624.56
2022-10-26T10:17:01.882Z,94619.25
2022-10-26T10:19:36.744Z,94634.06
2022-10-26T10:22:18.983Z,94630.31
2022-10-26T10:24:57.285Z,94623.00
2022-10-26T10:27:24.985Z,94633.06
2022-10-26T10:29:59.703Z,94632.91
2022-10-26T10:32:35.522Z,94624.16
2022-10-26T10:35:23.767Z,94640.91
2022-10-26T10:37:51.728Z,94644.34
2022-10-26T10:40:25.384Z,94644.25
2022-10-26T10:42:55.563Z,94653.28
2022-10-26T10:45:22.201Z,94644.16
2022-10-26T10:48:07.685Z,94650.00
2022-10-26T10:50:36.491Z,94639.31
2022-10-26T10:53:36.094Z,94643.16
2022-10-26T10:56:15.043Z,94642.31
2022-10-26T10:59:15.391Z,94649.13
2022-10-26T11:01:50.732Z,94640.69
2022-10-26T11:05:01.413Z,94648.66
2022-10-26T11:07:30.934Z,94656.53
2022-10-26T11:10:04.459Z,94652.34
2022-10-26T11:12:37.614Z,94656.53
2022-10-26T11:15:15.187Z,94650.69
2022-10-26T11:18:20.307Z,94654.31
2022-10-26T11:21:04.810Z,94638.44
2022-10-26T11:23:37.900Z,94642.63
2022-10-26T11:26:14.976Z,94651.75
2022-10-26T11:28:45.434Z,94647.94
2022-10-26T11:31:18.726Z,94642.94
2022-10-26T11:36:27.650Z,94649.22
2022-10-26T11:39:06.542Z,94655.06
2022-10-26T11:41:43.373Z,94647.66
2022-10-26T11:44:26.210Z,94658.97
2022-10-26T11:47:05.020Z,94655.84
2022-10-26T11:49:46.936Z,94658.56
2022-10-26T11:52:18.235Z,94659.34
2022-10-26T11:54:52.304Z,94659.34
2022-10-26T11:57:21.248Z,94657.78
2022-10-26T11:59:55.122Z,94667.94
2022-10-26T12:02:23.763Z,94657.75
2022-10-26T12:05:06.186Z,94667.50
2022-10-26T12:07:38.048Z,94667.13
2022-10-26T12:10:23.787Z,94673.75
2022-10-26T12:12:56.113Z,94669.41
2022-10-26T12:15:40.291Z,94678.78
2022-10-26T12:18:53.927Z,94680.75
2022-10-26T12:21:19.884Z,94674.53
2022-10-26T12:24:01.684Z,94687.78
2022-10-26T12:26:28.223Z,94685.06
2022-10-26T12:29:05.057Z,94686.63
2022-10-26T12:31:37.810Z,94688.56
2022-10-26T12:34:15.511Z,94692.47
2022-10-26T12:36:57.528Z,94697.19
2022-10-26T12:39:37.674Z,94689.72
2022-10-26T12:42:10.642Z,94703.84
2022-10-26T12:44:48.449Z,94703.00
2022-10-26T12:47:30.367Z,94702.47
2022-10-26T12:50:06.153Z,94705.09
2022-10-26T12:52:41.984Z,94708.44
2022-10-26T12:55:45.377Z,94713.38
2022-10-26T12:58:39.964Z,94712.16
2022-10-26T13:01:06.728Z,94711.38
2022-10-26T13:03:54.069Z,94709.00
2022-10-26T13:06:45.106Z,94713.25
2022-10-26T13:09:21.138Z,94719.72
2022-10-26T13:11:55.411Z,94722.00
2022-10-26T13:14:26.390Z,94723.13
2022-10-26T13:16:53.735Z,94723.06
2022-10-26T13:19:44.502Z,94727.41
2022-10-26T13:22:30.098Z,94728.31
2022-10-26T13:25:05.930Z,94735.81
2022-10-26T13:27:32.533Z,94730.78
2022-10-26T13:30:05.310Z,94723.50
2022-10-26T13:32:48.375Z,94724.25
2022-10-26T13:35:16.357Z,94730.03
2022-10-26T13:37:49.224Z,94739.63
2022-10-26T13:40:27.678Z,94738.00
2022-10-26T13:42:56.942Z,94742.59
2022-10-26T13:45:31.660Z,94742.91
2022-10-26T13:48:11.957Z,94738.59
2022-10-26T13:50:51.682Z,94742.47
2022-10-26T13:53:43.253Z,94740.50
2022-10-26T13:56:22.083Z,94746.94
2022-10-26T13:59:03.649Z,94752.28
2022-10-26T14:01:30.967Z,94745.13
2022-10-26T14:03:58.653Z,94760.22
2022-10-26T14:06:38.937Z,94744.53
2022-10-26T14:09:16.847Z,94752.69
2022-10-26T14:11:46.908Z,94742.94
2022-10-26T14:14:19.016Z,94758.91
2022-10-26T14:16:47.108Z,94748.41
2022-10-26T14:19:21.484Z,94749.66
2022-10-26T14:21:50.708Z,94756.97
2022-10-26T14:24:31.467Z,94754.13
2022-10-26T14:27:22.009Z,94760.25
2022-10-26T14:30:09.853Z,94765.00
2022-10-26T14:32:37.141Z,94764.28
2022-10-26T14:35:04.071Z,94754.56
2022-10-26T14:38:06.233Z,94767.47
2022-10-26T14:40:35.750Z,94778.34
2022-10-26T14:43:05.651Z,94775.63
2022-10-26T14:45:54.364Z,94781.47
2022-10-26T14:48:31.330Z,94781.13
2022-10-26T14:51:18.605Z,94790.06
2022-10-26T14:53:51.016Z,94784.09
2022-10-26T14:56:36.047Z,94792.22
2022-10-26T14:59:23.094Z,94784.28
2022-10-26T15:01:55.830Z,94787.66
2022-10-26T15:05:02.948Z,94794.88
2022-10-26T15:07:36.590Z,94793.59
2022-10-26T15:10:03.879Z,94785.66
2022-10-26T15:12:33.897Z,94796.50
2022-10-26T15:15:18.689Z,94798.69
2022-10-26T15:17:54.705Z,94800.38
2022-10-26T15:20:24.569Z,94798.97
2022-10-26T15:22:54.577Z,94795.59
2022-10-26T15:25:33.518Z,94802.06
2022-10-26T15:28:31.016Z,94804.22
2022-10-26T15:31:01.386Z,94813.81
2022-10-26T15:33:28.725Z,94813.69
2022-10-26T15:36:19.539Z,94817.75
2022-10-26T15:38:48.229Z,94813.25
2022-10-26T15:41:18.913Z,94820.50
2022-10-26T15:43:50.146Z,94819.16
2022-10-26T15:46:17.345Z,94819.00
2022-10-26T15:51:15.445Z,94820.66
2022-10-26T15:53:42.152Z,94829.47
2022-10-26T15:56:17.913Z,94835.16
2022-10-26T15:58:45.154Z,94829.88
2022-10-26T16:01:23.610Z,94836.75
2022-10-26T16:03:51.779Z,94841.16
2022-10-26T16:06:29.050Z,94843.38
2022-10-26T16:08:58.309Z,94854.84
2022-10-26T16:11:25.139Z,94845.25
2022-10-26T16:13:51.904Z,94842.41
2022-10-26T16:16:19.945Z,94857.09
2022-10-26T16:18:48.960Z,94854.66
2022-10-26T16:21:18.636Z,94843.94
2022-10-26T16:23:53.620Z,94863.31
2022-10-26T16:26:21.642Z,94873.13
2022-10-26T16:28:49.157Z,94871.38
2022-10-26T16:31:18.829Z,94877.34
2022-10-26T16:33:45.633Z,94874.47
2022-10-26T16:36:13.354Z,94869.16
2022-10-26T16:38:40.210Z,94874.47
2022-10-26T16:41:14.087Z,94881.56
2022-10-26T16:43:42.897Z,94880.41
2022-10-26T16:46:12.340Z,94884.69
2022-10-26T16:48:41.029Z,94889.22
2022-10-26T16:51:13.677Z,94887.91
2022-10-26T16:53:41.229Z,94879.16
2022-10-26T16:56:11.451Z,94890.31
2022-10-26T16:58:38.694Z,94882.03
2022-10-26T17:01:07.025Z,94885.75
2022-10-26T17:03:34.176Z,94878.69
2022-10-26T17:06:06.665Z,94897.06
2022-10-26T17:08:35.143Z,94898.25
2022-10-26T17:11:07.356Z,94911.00
2022-10-26T17:13:34.354Z,94903.91
2022-10-26T17:16:02.611Z,94908.81
2022-10-26T17:18:29.622Z,94915.81
2022-10-26T17:20:56.329Z,94912.25
2022-10-26T17:23:23.562Z,94915.97
2022-10-26T17:25:50.238Z,94917.25
2022-10-26T17:28:17.291Z,94924.56
2022-10-26T17:30:44.782Z,94925.06
2022-10-26T17:33:12.300Z,94925.53
2022-10-26T17:35:38.971Z,94923.31
2022-10-26T17:38:05.743Z,94933.88
2022-10-26T17:40:32.978Z,94927.09
2022-10-26T17:43:00.287Z,94927.56
2022-10-26T17:45:27.130Z,94932.63
2022-10-26T17:47:54.074Z,94929.72
2022-10-26T17:50:21.036Z,94948.94
2022-10-26T17:52:47.794Z,94958.16
2022-10-26T17:55:14.551Z,94955.44
2022-10-26T17:57:41.686Z,94951.53
2022-10-26T18:00:09.017Z,94958.47
2022-10-26T18:02:41.659Z,94956.25
2022-10-26T18:05:08.804Z,94963.78
2022-10-26T18:07:35.549Z,94971.56
2022-10-26T18:10:13.821Z,94969.28
2022-10-26T18:12:49.215Z,94966.59
2022-10-26T18:15:16.273Z,94972.19
2022-10-26T18:17:43.828Z,94978.44
2022-10-26T18:20:11.135Z,94981.03
2022-10-26T18:22:37.830Z,94992.84
2022-10-26T18:25:04.757Z,94988.75
2022-10-26T18:27:31.451Z,94998.97
2022-10-26T18:29:58.100Z,94996.00
2022-10-26T18:32:24.818Z,94987.47
2022-10-26T18:34:51.640Z,94976.38
2022-10-26T18:37:18.338Z,94989.66
2022-10-26T18:39:44.991Z,94994.03
2022-10-26T18:42:11.683Z,94981.81
2022-10-26T18:44:38.322Z,94995.00
2022-10-26T18:47:05.137Z,94990.63
2022-10-26T18:49:31.950Z,94992.44
2022-10-26T18:51:59.283Z,95000.69
2022-10-26T18:54:28.277Z,95002.00
2022-10-26T18:56:57.665Z,95006.00
2022-10-26T18:59:24.371Z,94999.25
2022-10-26T19:01:51.254Z,95005.75
2022-10-26T19:04:18.098Z,94993.56
2022-10-26T19:06:47.482Z,95009.88
2022-10-26T19:09:19.322Z,95012.09
2022-10-26T19:11:46.293Z,95019.44
2022-10-26T19:14:13.810Z,95023.25
2022-10-26T19:16:45.841Z,95023.84
2022-10-26T19:19:15.663Z,95025.09
2022-10-26T19:21:42.456Z,95032.84
2022-10-26T19:24:20.753Z,95020.22
2022-10-26T19:26:48.874Z,95038.28
2022-10-26T19:29:16.873Z,95027.44
2022-10-26T19:31:45.321Z,95026.34
2022-10-26T19:34:13.628Z,95041.53
2022-10-26T19:36:44.864Z,95041.50
2022-10-26T19:39:13.515Z,95033.09
2022-10-26T19:41:40.616Z,95042.41
2022-10-26T19:44:08.028Z,95032.03
2022-10-26T19:46:34.994Z,95048.31
2022-10-26T19:49:02.335Z,95046.59
2022-10-26T19:51:31.148Z,95043.28
2022-10-26T19:54:03.133Z,95040.66
2022-10-26T19:56:31.239Z,95043.81
2022-10-26T19:58:58.233Z,95046.38
2022-10-26T20:01:25.253Z,95036.25
2022-10-26T20:03:52.489Z,95044.56
2022-10-26T20:06:19.273Z,95049.06
2022-10-26T20:08:47.984Z,95047.78
2022-10-26T20:11:16.796Z,95054.13
2022-10-26T20:13:45.231Z,95054.06
2022-10-26T20:16:13.055Z,95052.81
2022-10-26T20:18:44.081Z,95057.28
2022-10-26T20:21:15.089Z,95049.69
2022-10-26T20:23:42.810Z,95056.97
2022-10-26T20:26:11.787Z,95059.66
2022-10-26T20:28:44.657Z,95054.94
2022-10-26T20:31:11.418Z,95052.94
2022-10-26T20:33:38.094Z,95070.31
2022-10-26T20:36:04.979Z,95060.84
2022-10-26T20:38:32.049Z,95055.63
2022-10-26T20:40:59.602Z,95068.91
2022-10-26T20:43:27.836Z,95063.06
2022-10-26T20:45:56.288Z,95064.19
2022-10-26T20:48:24.356Z,95079.22
2022-10-26T20:51:02.906Z,95072.06
2022-10-26T20:53:36.046Z,95055.63
2022-10-26T20:56:07.487Z,95077.00
2022-10-26T20:58:43.421Z,95077.16
2022-10-26T21:01:23.753Z,95077.16
2022-10-26T21:03:52.255Z,95084.13
2022-10-26T21:06:19.483Z,95073.84
2022-10-26T21:08:49.466Z,95069.09
2022-10-26T21:11:17.713Z,95076.06
2022-10-26T21:13:45.882Z,95080.66
2022-10-26T21:16:13.932Z,95080.81
2022-10-26T21:18:40.680Z,95080.81
2022-10-26T21:21:07.404Z,95084.59
2022-10-26T21:23:37.391Z,95087.31
2022-10-26T21:26:05.050Z,95081.78
2022-10-26T21:28:44.016Z,95084.28
2022-10-26T21:31:12.781Z,95083.50
2022-10-26T21:33:40.224Z,95078.78
2022-10-26T21:36:09.914Z,95089.53
2022-10-26T21:38:36.868Z,95092.72
2022-10-26T21:41:18.382Z,95088.56
2022-10-26T21:43:47.959Z,95084.75
2022-10-26T21:46:15.863Z,95089.81
2022-10-26T21:48:42.844Z,95074.78
2022-10-26T21:51:15.212Z,95086.50
2022-10-26T21:53:42.052Z,95081.53
2022-10-26T21:56:15.094Z,95086.59
2022-10-26T21:58:42.269Z,95074.09
2022-10-26T22:01:13.333Z,95096.47
2022-10-26T22:03:41.646Z,95088.13
2022-10-26T22:06:13.472Z,95093.00
2022-10-26T22:08:40.810Z,95090.97
2022-10-26T22:11:13.023Z,95102.34
2022-10-26T22:13:42.440Z,95100.78
2022-10-26T22:16:14.353Z,95104.25
2022-10-26T22:18:44.726Z,95089.84
2022-10-26T22:21:13.214Z,95095.38
2022-10-26T22:23:41.595Z,95087.59
2022-10-26T22:26:11.584Z,95094.88
2022-10-26T22:28:42.687Z,95099.59
2022-10-26T22:31:13.157Z,95090.13
2022-10-26T22:33:41.783Z,95094.84
2022-10-26T22:36:14.893Z,95091.53
2022-10-26T22:38:42.637Z,95092.81
2022-10-26T22:41:11.087Z,95095.97
2022-10-26T22:43:38.120Z,95096.91
2022-10-26T22:46:17.491Z,95097.38
2022-10-26T22:48:47.047Z,95101.78
2022-10-26T22:51:21.201Z,95102.59
2022-10-26T22:53:53.076Z,95101.78
2022-10-26T22:56:20.497Z,95097.09
2022-10-26T22:58:49.942Z,95097.38
2022-10-26T23:01:19.519Z,95100.69
2022-10-26T23:03:46.490Z,95097.69
2022-10-26T23:06:15.992Z,95099.28
2022-10-26T23:08:44.739Z,95104.66
2022-10-26T23:11:16.827Z,95098.97
2022-10-26T23:13:44.308Z,95107.97
2022-10-26T23:16:14.464Z,95096.91
2022-10-26T23:18:41.410Z,95099.91
2022-10-26T23:21:10.107Z,95091.38
2022-10-26T23:23:36.835Z,95095.00
2022-10-26T23:26:12.329Z,95094.06
2022-10-26T23:28:40.024Z,95104.63
2022-10-26T23:31:07.704Z,95088.66
2022-10-26T23:33:35.177Z,95096.22
2022-10-26T23:36:01.872Z,95096.22
2022-10-26T23:38:28.778Z,95092.13
2022-10-26T23:40:58.277Z,95093.22
2022-10-26T23:43:26.284Z,95090.53
2022-10-26T23:45:54.416Z,95079.13
2022-10-26T23:48:21.613Z,95096.06
2022-10-26T23:50:50.361Z,95099.38
2022-10-26T23:53:20.044Z,95098.91
2022-10-26T23:55:48.808Z,95102.06
2022-10-26T23:58:17.339Z,95106.47
